createdAt,value
2022-11-02T00:00:36.126Z,1.10
2022-11-02T00:03:04.752Z,1.83
2022-11-02T00:05:33.035Z,1.13
2022-11-02T00:08:01.180Z,1.47
2022-11-02T00:10:29.982Z,1.17
2022-11-02T00:13:02.615Z,1.00
2022-11-02T00:15:34.251Z,1.43
2022-11-02T00:20:38.816Z,1.50
2022-11-02T00:23:10.841Z,1.23
2022-11-02T00:25:42.331Z,1.30
2022-11-02T00:30:39.804Z,1.30
2022-11-02T00:33:07.848Z,1.00
2022-11-02T00:35:36.895Z,1.03
2022-11-02T00:38:05.503Z,0.93
2022-11-02T00:40:34.122Z,1.20
2022-11-02T00:43:06.131Z,1.00
2022-11-02T00:45:35.593Z,1.27
2022-11-02T00:48:04.648Z,1.23
2022-11-02T00:50:32.932Z,1.03
2022-11-02T00:53:03.851Z,1.10
2022-11-02T00:55:32.038Z,1.15
2022-11-02T00:58:04.393Z,1.10
2022-11-02T01:00:32.883Z,1.03
2022-11-02T01:03:03.194Z,1.00
2022-11-02T01:05:31.701Z,0.80
2022-11-02T01:07:59.991Z,1.47
2022-11-02T01:10:28.645Z,0.83
2022-11-02T01:13:02.446Z,1.27
2022-11-02T01:15:30.467Z,0.70
2022-11-02T01:17:59.626Z,0.70
2022-11-02T01:20:30.155Z,1.10
2022-11-02T01:22:59.260Z,1.03
2022-11-02T01:25:27.801Z,0.70
2022-11-02T01:27:56.186Z,1.23
2022-11-02T01:30:24.270Z,0.90
2022-11-02T01:32:52.581Z,1.10
2022-11-02T01:35:21.341Z,0.80
2022-11-02T01:37:50.859Z,0.67
2022-11-02T01:40:19.108Z,0.90
2022-11-02T01:42:47.379Z,1.10
2022-11-02T01:45:16.052Z,1.30
2022-11-02T01:47:47.354Z,1.30
2022-11-02T01:50:23.223Z,0.90
2022-11-02T01:52:53.317Z,0.73
2022-11-02T01:55:26.490Z,1.63
2022-11-02T01:57:58.495Z,0.90
2022-11-02T02:00:26.834Z,0.70
2022-11-02T02:03:09.051Z,0.70
2022-11-02T02:05:42.989Z,0.93
2022-11-02T02:08:17.022Z,0.77
2022-11-02T02:10:45.186Z,0.80
2022-11-02T02:13:14.397Z,0.87
2022-11-02T02:15:51.778Z,1.05
2022-11-02T02:18:27.218Z,1.03
2022-11-02T02:21:14.600Z,1.67
2022-11-02T02:24:15.970Z,1.13
2022-11-02T02:27:08.725Z,1.03
2022-11-02T02:29:51.296Z,1.30
2022-11-02T02:32:26.943Z,1.10
2022-11-02T02:34:58.961Z,1.00
2022-11-02T02:37:31.643Z,1.63
2022-11-02T02:40:06.998Z,0.97
2022-11-02T02:42:45.507Z,0.80
2022-11-02T02:45:20.688Z,1.47
2022-11-02T02:47:55.514Z,0.93
2022-11-02T02:50:28.660Z,0.90
2022-11-02T02:53:00.161Z,1.07
2022-11-02T02:55:33.509Z,1.40
2022-11-02T02:58:03.990Z,0.90
2022-11-02T03:00:36.299Z,1.27
2022-11-02T03:03:06.429Z,0.90
2022-11-02T03:05:36.538Z,1.00
2022-11-02T03:08:12.111Z,1.57
2022-11-02T03:10:48.123Z,1.30
2022-11-02T03:13:33.030Z,0.83
2022-11-02T03:16:11.370Z,1.57
2022-11-02T03:18:49.778Z,1.83
2022-11-02T03:21:29.487Z,1.60
2022-11-02T03:24:02.085Z,0.70
2022-11-02T03:26:35.501Z,1.43
2022-11-02T03:29:10.155Z,2.47
2022-11-02T03:31:44.392Z,1.53
2022-11-02T03:34:21.528Z,1.00
2022-11-02T03:36:55.626Z,2.03
2022-11-02T03:39:33.151Z,1.30
2022-11-02T03:42:04.683Z,1.67
2022-11-02T03:44:38.783Z,1.10
2022-11-02T03:47:13.503Z,1.23
2022-11-02T03:49:43.994Z,1.10
2022-11-02T03:52:19.630Z,1.67
2022-11-02T03:54:54.930Z,2.07
2022-11-02T03:57:28.486Z,1.30
2022-11-02T04:00:08.079Z,1.40
2022-11-02T04:02:47.063Z,1.30
2022-11-02T04:05:15.702Z,1.37
2022-11-02T04:08:07.536Z,1.20
2022-11-02T04:10:36.146Z,1.60
2022-11-02T04:13:24.368Z,1.30
2022-11-02T04:15:53.119Z,1.40
2022-11-02T04:18:39.974Z,1.17
2022-11-02T04:21:08.429Z,1.10
2022-11-02T04:23:54.087Z,1.13
2022-11-02T04:26:22.339Z,1.43
2022-11-02T04:28:50.499Z,1.87
2022-11-02T04:31:18.636Z,0.90
2022-11-02T04:33:47.057Z,1.53
2022-11-02T04:36:17.809Z,1.88
2022-11-02T04:38:50.736Z,1.53
2022-11-02T04:41:45.502Z,1.70
2022-11-02T04:44:39.756Z,1.47
2022-11-02T04:47:15.956Z,1.10
2022-11-02T04:49:46.602Z,1.30
2022-11-02T04:52:17.928Z,1.27
2022-11-02T04:54:50.284Z,1.87
2022-11-02T04:57:19.172Z,1.40
2022-11-02T04:59:47.348Z,1.50
2022-11-02T05:02:15.477Z,1.20
2022-11-02T05:04:46.454Z,1.53
2022-11-02T05:07:15.528Z,1.77
2022-11-02T05:09:43.520Z,1.20
2022-11-02T05:12:13.675Z,1.30
2022-11-02T05:14:41.868Z,1.10
2022-11-02T05:17:10.132Z,0.90
2022-11-02T05:19:39.453Z,1.53
2022-11-02T05:22:09.059Z,1.60
2022-11-02T05:24:37.379Z,1.40
2022-11-02T05:27:06.599Z,1.60
2022-11-02T05:29:37.488Z,1.58
2022-11-02T05:32:06.287Z,1.80
2022-11-02T05:34:35.483Z,1.23
2022-11-02T05:37:04.756Z,1.10
2022-11-02T05:39:34.359Z,1.53
2022-11-02T05:42:02.917Z,1.47
2022-11-02T05:44:31.249Z,1.57
2022-11-02T05:47:00.107Z,1.40
2022-11-02T05:49:28.200Z,0.93
2022-11-02T05:51:56.212Z,1.67
2022-11-02T05:54:24.592Z,2.13
2022-11-02T05:56:54.099Z,1.63
2022-11-02T05:59:22.162Z,1.10
2022-11-02T06:01:50.267Z,1.53
2022-11-02T06:04:18.405Z,1.73
2022-11-02T06:06:46.876Z,1.67
2022-11-02T06:09:15.000Z,1.60
2022-11-02T06:11:43.379Z,1.50
2022-11-02T06:14:12.901Z,1.20
2022-11-02T06:16:40.955Z,1.17
2022-11-02T06:19:09.212Z,2.73
2022-11-02T06:21:37.302Z,1.23
2022-11-02T06:24:05.865Z,1.10
2022-11-02T06:26:34.211Z,1.33
2022-11-02T06:29:02.182Z,1.77
2022-11-02T06:31:31.757Z,1.60
2022-11-02T06:33:59.954Z,1.47
2022-11-02T06:36:28.041Z,1.30
2022-11-02T06:38:56.108Z,1.93
2022-11-02T06:41:24.114Z,1.97
2022-11-02T06:43:52.112Z,1.73
2022-11-02T06:46:20.150Z,1.80
2022-11-02T06:48:50.616Z,1.30
2022-11-02T06:51:18.607Z,1.60
2022-11-02T06:53:46.615Z,1.20
2022-11-02T06:56:15.042Z,1.20
2022-11-02T06:58:43.008Z,1.47
2022-11-02T07:01:13.352Z,2.10
2022-11-02T07:03:41.502Z,1.80
2022-11-02T07:06:14.128Z,1.57
2022-11-02T07:08:43.414Z,1.77
2022-11-02T07:11:14.566Z,1.57
2022-11-02T07:16:10.743Z,1.70
2022-11-02T07:18:38.974Z,2.40
2022-11-02T07:21:07.548Z,2.13
2022-11-02T07:23:36.940Z,1.47
2022-11-02T07:26:05.496Z,1.60
2022-11-02T07:28:33.498Z,2.30
2022-11-02T07:31:01.588Z,2.23
2022-11-02T07:33:29.598Z,2.90
2022-11-02T07:35:57.806Z,1.60
2022-11-02T07:38:26.028Z,1.43
2022-11-02T07:40:55.594Z,1.10
2022-11-02T07:43:24.006Z,1.60
2022-11-02T07:48:45.987Z,2.30
2022-11-02T07:51:14.831Z,1.87
2022-11-02T07:53:43.490Z,1.93
2022-11-02T07:56:18.737Z,1.63
2022-11-02T07:58:49.231Z,2.43
2022-11-02T08:01:17.464Z,2.35
2022-11-02T08:03:45.697Z,1.40
2022-11-02T08:06:14.023Z,1.67
2022-11-02T08:08:42.765Z,1.63
2022-11-02T08:11:10.903Z,2.13
2022-11-02T08:13:40.460Z,2.10
2022-11-02T08:16:09.026Z,1.63
2022-11-02T08:18:37.189Z,1.70
2022-11-02T08:21:07.926Z,1.70
2022-11-02T08:23:36.098Z,2.45
2022-11-02T08:26:04.109Z,2.03
2022-11-02T08:28:36.063Z,3.30
2022-11-02T08:31:07.272Z,3.30
2022-11-02T08:33:35.280Z,2.17
2022-11-02T08:36:05.469Z,2.83
2022-11-02T08:38:33.739Z,2.75
2022-11-02T08:41:01.751Z,2.43
2022-11-02T08:43:30.006Z,2.33
2022-11-02T08:46:16.445Z,1.70
2022-11-02T08:48:46.484Z,2.87
2022-11-02T08:51:14.886Z,1.50
2022-11-02T08:53:48.634Z,2.90
2022-11-02T08:56:19.644Z,2.20
2022-11-02T08:58:47.728Z,1.40
2022-11-02T09:01:15.904Z,2.20
2022-11-02T09:03:44.071Z,1.40
2022-11-02T09:06:13.562Z,1.30
2022-11-02T09:08:41.698Z,1.90
2022-11-02T09:11:09.808Z,1.70
2022-11-02T09:13:39.200Z,1.63
2022-11-02T09:16:07.935Z,1.80
2022-11-02T09:18:35.950Z,2.13
2022-11-02T09:21:04.334Z,2.25
2022-11-02T09:23:34.578Z,2.53
2022-11-02T09:26:02.746Z,1.67
2022-11-02T09:28:31.240Z,1.77
2022-11-02T09:30:59.283Z,2.13
2022-11-02T09:33:29.729Z,1.57
2022-11-02T09:36:02.642Z,2.22
2022-11-02T09:38:30.797Z,1.85
2022-11-02T09:41:15.464Z,1.83
2022-11-02T09:43:56.911Z,1.67
2022-11-02T09:46:28.940Z,2.00
2022-11-02T09:49:00.086Z,1.70
2022-11-02T09:51:33.378Z,2.95
2022-11-02T09:54:11.753Z,2.00
2022-11-02T09:56:45.866Z,2.15
2022-11-02T09:59:16.368Z,3.45
2022-11-02T10:01:59.861Z,2.00
2022-11-02T10:04:50.229Z,2.13
2022-11-02T10:07:30.765Z,2.10
2022-11-02T10:10:04.243Z,1.90
2022-11-02T10:12:43.992Z,2.00
2022-11-02T10:15:17.597Z,1.58
2022-11-02T10:17:47.717Z,2.40
2022-11-02T10:20:26.838Z,1.98
2022-11-02T10:23:00.279Z,2.00
2022-11-02T10:25:28.466Z,2.50
2022-11-02T10:28:04.506Z,1.60
2022-11-02T10:30:33.589Z,1.50
2022-11-02T10:33:01.762Z,1.70
2022-11-02T10:35:57.802Z,1.75
2022-11-02T10:38:39.319Z,3.30
2022-11-02T10:41:21.580Z,1.77
2022-11-02T10:44:04.651Z,2.08
2022-11-02T10:47:04.053Z,1.80
2022-11-02T10:49:51.302Z,1.85
2022-11-02T10:52:21.455Z,1.98
2022-11-02T10:54:51.358Z,1.63
2022-11-02T10:57:24.250Z,2.17
2022-11-02T11:00:25.660Z,1.38
2022-11-02T11:05:31.635Z,2.42
2022-11-02T11:08:00.268Z,1.52
2022-11-02T11:10:28.690Z,2.08
2022-11-02T11:12:57.827Z,2.10
2022-11-02T11:15:48.858Z,1.77
2022-11-02T11:21:10.059Z,1.50
2022-11-02T11:23:38.650Z,2.00
2022-11-02T11:26:13.256Z,1.55
2022-11-02T11:28:54.723Z,2.38
2022-11-02T11:31:25.449Z,2.08
2022-11-02T11:33:59.377Z,1.80
2022-11-02T11:36:30.634Z,2.10
2022-11-02T11:39:02.134Z,2.00
2022-11-02T11:41:32.748Z,2.33
2022-11-02T11:44:04.217Z,2.22
2022-11-02T11:46:53.879Z,2.00
2022-11-02T11:49:41.570Z,1.77
2022-11-02T11:52:30.028Z,2.80
2022-11-02T11:55:02.982Z,2.40
2022-11-02T11:57:32.789Z,2.15
2022-11-02T12:00:05.203Z,1.80
2022-11-02T12:02:44.041Z,2.13
2022-11-02T12:05:16.503Z,4.07
2022-11-02T12:08:19.668Z,1.85
2022-11-02T12:11:18.769Z,1.48
2022-11-02T12:14:08.616Z,1.70
2022-11-02T12:16:59.747Z,2.13
2022-11-02T12:19:38.877Z,3.58
2022-11-02T12:22:19.178Z,1.50
2022-11-02T12:25:18.936Z,1.70
2022-11-02T12:27:56.848Z,2.67
2022-11-02T12:30:35.145Z,1.30
2022-11-02T12:33:18.819Z,2.10
2022-11-02T12:36:08.610Z,1.60
2022-11-02T12:38:53.834Z,1.50
2022-11-02T12:41:38.995Z,2.40
2022-11-02T12:44:17.770Z,1.80
2022-11-02T12:46:53.662Z,1.75
2022-11-02T12:49:36.120Z,2.58
2022-11-02T12:52:18.148Z,1.42
2022-11-02T12:54:50.039Z,1.80
2022-11-02T12:57:21.344Z,2.08
2022-11-02T12:59:55.026Z,2.17
2022-11-02T13:02:28.692Z,1.80
2022-11-02T13:05:02.093Z,1.90
2022-11-02T13:07:38.243Z,2.10
2022-11-02T13:10:19.166Z,2.17
2022-11-02T13:12:49.938Z,1.83
2022-11-02T13:15:22.008Z,1.85
2022-11-02T13:17:54.112Z,3.70
2022-11-02T13:20:27.475Z,2.03
2022-11-02T13:23:08.810Z,2.08
2022-11-02T13:25:41.984Z,2.50
2022-11-02T13:28:15.771Z,3.08
2022-11-02T13:30:51.229Z,3.08
2022-11-02T13:33:38.816Z,2.20
2022-11-02T13:36:08.423Z,2.17
2022-11-02T13:38:46.016Z,2.35
2022-11-02T13:41:31.126Z,2.55
2022-11-02T13:44:37.553Z,2.00
2022-11-02T13:47:25.388Z,2.90
2022-11-02T13:49:55.672Z,3.45
2022-11-02T13:52:35.507Z,3.08
2022-11-02T13:55:10.022Z,2.70
2022-11-02T13:57:42.525Z,2.60
2022-11-02T14:00:31.015Z,2.50
2022-11-02T14:03:05.210Z,3.30
2022-11-02T14:05:35.943Z,3.13
2022-11-02T14:08:09.353Z,3.42
2022-11-02T14:10:41.305Z,2.58
2022-11-02T14:13:14.232Z,3.05
2022-11-02T14:15:44.144Z,2.03
2022-11-02T14:18:34.725Z,2.83
2022-11-02T14:21:40.095Z,2.38
2022-11-02T14:24:54.485Z,3.72
2022-11-02T14:27:34.841Z,2.97
2022-11-02T14:30:03.410Z,2.47
2022-11-02T14:32:56.060Z,2.60
2022-11-02T14:35:39.616Z,3.13
2022-11-02T14:38:47.896Z,2.28
2022-11-02T14:42:02.595Z,2.85
2022-11-02T14:45:01.156Z,2.35
2022-11-02T14:47:35.278Z,2.55
2022-11-02T14:50:10.313Z,2.78
2022-11-02T14:52:43.673Z,2.60
2022-11-02T14:57:55.291Z,2.38
2022-11-02T15:00:29.420Z,2.17
2022-11-02T15:02:58.701Z,3.67
2022-11-02T15:05:32.831Z,3.35
2022-11-02T15:08:08.174Z,2.58
2022-11-02T15:10:40.490Z,2.78
2022-11-02T15:13:35.746Z,2.90
2022-11-02T15:16:23.689Z,3.30
2022-11-02T15:18:52.760Z,3.13
2022-11-02T15:21:30.686Z,2.50
2022-11-02T15:24:05.398Z,4.32
2022-11-02T15:26:46.408Z,2.58
2022-11-02T15:29:37.234Z,4.00
2022-11-02T15:32:17.067Z,2.67
2022-11-02T15:34:52.110Z,4.95
2022-11-02T15:37:25.289Z,3.40
2022-11-02T15:39:55.791Z,2.53
2022-11-02T15:42:40.245Z,2.25
2022-11-02T15:45:57.583Z,2.15
2022-11-02T15:48:50.111Z,2.15
2022-11-02T15:51:26.523Z,2.53
2022-11-02T15:54:21.459Z,3.30
2022-11-02T15:57:02.700Z,2.65
2022-11-02T15:59:58.984Z,2.22
2022-11-02T16:02:30.624Z,2.33
2022-11-02T16:05:06.190Z,2.97
2022-11-02T16:08:05.245Z,3.47
2022-11-02T16:10:28.778Z,2.72
2022-11-02T16:13:01.434Z,2.92
2022-11-02T16:15:30.708Z,2.30
2022-11-02T16:17:59.811Z,2.53
2022-11-02T16:20:31.113Z,2.40
2022-11-02T16:23:03.693Z,3.20
2022-11-02T16:25:40.360Z,2.13
2022-11-02T16:28:20.981Z,2.70
2022-11-02T16:31:22.577Z,2.67
2022-11-02T16:33:56.403Z,2.33
2022-11-02T16:36:37.161Z,2.72
2022-11-02T16:39:37.948Z,2.08
2022-11-02T16:42:11.066Z,2.70
2022-11-02T16:44:40.358Z,3.70
2022-11-02T16:47:27.825Z,2.50
2022-11-02T16:49:59.735Z,2.38
2022-11-02T16:52:33.415Z,3.05
2022-11-02T16:55:23.846Z,2.78
2022-11-02T16:57:52.261Z,2.42
2022-11-02T17:00:22.000Z,2.30
2022-11-02T17:02:50.379Z,3.17
2022-11-02T17:05:22.141Z,2.78
2022-11-02T17:08:05.244Z,2.33
2022-11-02T17:10:36.258Z,1.75
2022-11-02T17:13:07.094Z,2.60
2022-11-02T17:18:27.340Z,5.13
2022-11-02T17:21:20.183Z,3.17
2022-11-02T17:23:54.513Z,2.22
2022-11-02T17:29:00.898Z,3.33
2022-11-02T17:34:02.985Z,2.83
2022-11-02T17:36:46.203Z,3.25
2022-11-02T17:39:17.504Z,2.88
2022-11-02T17:42:10.494Z,2.80
2022-11-02T17:44:39.004Z,3.70
2022-11-02T17:47:13.713Z,3.05
2022-11-02T17:49:42.459Z,2.60
2022-11-02T17:52:13.962Z,2.88
2022-11-02T17:54:45.119Z,2.45
2022-11-02T17:57:19.313Z,2.83
2022-11-02T17:59:48.642Z,2.28
2022-11-02T18:02:17.715Z,1.70
2022-11-02T18:04:49.490Z,4.27
2022-11-02T18:07:18.897Z,3.05
2022-11-02T18:09:49.001Z,2.65
2022-11-02T18:12:17.963Z,2.38
2022-11-02T18:14:46.873Z,3.15
2022-11-02T18:17:19.588Z,2.75
2022-11-02T18:19:50.086Z,3.00
2022-11-02T18:22:18.378Z,2.65
2022-11-02T18:24:48.047Z,2.42
2022-11-02T18:27:16.419Z,2.65
2022-11-02T18:29:44.796Z,2.97
2022-11-02T18:32:13.389Z,2.90
2022-11-02T18:34:46.751Z,2.33
2022-11-02T18:37:15.115Z,3.30
2022-11-02T18:39:44.252Z,2.40
2022-11-02T18:42:13.816Z,2.47
2022-11-02T18:44:42.082Z,2.20
2022-11-02T18:47:10.335Z,2.65
2022-11-02T18:49:38.582Z,3.00
2022-11-02T18:52:09.633Z,3.42
2022-11-02T18:54:58.191Z,3.55
2022-11-02T18:57:45.040Z,4.38
2022-11-02T19:00:48.058Z,6.43
2022-11-02T19:03:21.001Z,4.50
2022-11-02T19:06:16.238Z,3.67
2022-11-02T19:09:02.059Z,3.05
2022-11-02T19:11:31.009Z,3.47
2022-11-02T19:14:00.940Z,2.80
2022-11-02T19:16:35.848Z,4.43
2022-11-02T19:19:12.705Z,2.42
2022-11-02T19:21:43.869Z,2.90
2022-11-02T19:24:17.387Z,2.70
2022-11-02T19:26:48.691Z,2.63
2022-11-02T19:29:35.518Z,3.65
2022-11-02T19:32:03.984Z,4.60
2022-11-02T19:34:38.729Z,3.05
2022-11-02T19:37:33.470Z,6.18
2022-11-02T19:40:05.087Z,3.28
2022-11-02T19:44:10.021Z,5.45
2022-11-02T19:55:43.123Z,10.40
2022-11-02T19:58:17.853Z,8.40
2022-11-02T20:00:49.245Z,4.50
2022-11-02T20:03:27.830Z,3.50
2022-11-02T20:06:02.532Z,3.83
2022-11-02T20:08:32.600Z,3.60
2022-11-02T20:11:09.293Z,3.20
2022-11-02T20:13:39.703Z,3.75
2022-11-02T20:16:09.258Z,4.10
2022-11-02T20:18:38.541Z,3.95
2022-11-02T20:21:09.036Z,3.17
2022-11-02T20:23:44.495Z,2.90
2022-11-02T20:26:15.482Z,2.80
2022-11-02T20:28:47.413Z,1.85
2022-11-02T20:31:17.306Z,2.60
2022-11-02T20:33:46.596Z,2.27
2022-11-02T20:36:16.046Z,2.42
2022-11-02T20:38:45.826Z,2.53
2022-11-02T20:41:18.967Z,3.70
2022-11-02T20:43:49.133Z,2.40
2022-11-02T20:49:20.783Z,2.75
2022-11-02T20:51:51.371Z,4.35
2022-11-02T20:54:25.600Z,3.50
2022-11-02T20:56:54.287Z,3.65
2022-11-02T20:59:22.497Z,3.60
2022-11-02T21:01:50.814Z,4.00
2022-11-02T21:04:21.320Z,3.10
2022-11-02T21:06:50.661Z,2.90
2022-11-02T21:09:19.859Z,2.72
2022-11-02T21:12:09.742Z,3.33
2022-11-02T21:14:38.086Z,3.92
2022-11-02T21:17:07.411Z,3.45
2022-11-02T21:19:36.776Z,3.15
2022-11-02T21:22:05.295Z,2.38
2022-11-02T21:24:34.012Z,3.75
2022-11-02T21:27:03.619Z,5.30
2022-11-02T21:29:32.064Z,4.00
2022-11-02T21:32:02.002Z,3.67
2022-11-02T21:34:30.629Z,3.80
2022-11-02T21:36:58.829Z,3.67
2022-11-02T21:39:27.256Z,4.00
2022-11-02T21:41:55.711Z,4.57
2022-11-02T21:44:26.041Z,3.70
2022-11-02T21:46:54.567Z,3.67
2022-11-02T21:49:26.265Z,3.90
2022-11-02T21:51:54.636Z,3.65
2022-11-02T21:54:22.764Z,3.75
2022-11-02T21:56:54.558Z,4.30
2022-11-02T21:59:22.665Z,4.07
2022-11-02T22:01:52.864Z,4.32
2022-11-02T22:04:25.565Z,3.00
2022-11-02T22:06:55.649Z,3.03
2022-11-02T22:09:24.169Z,2.50
2022-11-02T22:12:14.224Z,2.80
2022-11-02T22:14:42.317Z,2.70
2022-11-02T22:17:28.660Z,2.90
2022-11-02T22:20:04.295Z,3.67
2022-11-02T22:22:32.499Z,2.83
2022-11-02T22:25:00.626Z,3.13
2022-11-02T22:27:28.779Z,3.03
2022-11-02T22:29:56.951Z,2.25
2022-11-02T22:32:26.505Z,3.35
2022-11-02T22:34:54.932Z,2.70
2022-11-02T22:37:40.452Z,2.83
2022-11-02T22:40:09.911Z,2.85
2022-11-02T22:42:41.492Z,2.30
2022-11-02T22:45:12.206Z,2.20
2022-11-02T22:47:42.951Z,3.83
2022-11-02T22:50:11.201Z,2.72
2022-11-02T22:52:39.404Z,3.15
2022-11-02T22:55:08.173Z,3.10
2022-11-02T22:57:36.285Z,2.08
2022-11-02T23:00:06.381Z,3.13
2022-11-02T23:02:34.608Z,2.60
2022-11-02T23:05:08.279Z,4.07
2022-11-02T23:07:41.829Z,2.83
2022-11-02T23:10:31.290Z,3.50
2022-11-02T23:12:58.397Z,4.03
2022-11-02T23:15:27.492Z,2.70
2022-11-02T23:17:55.573Z,3.72
2022-11-02T23:20:24.375Z,3.47
2022-11-02T23:23:10.147Z,3.75
2022-11-02T23:25:38.421Z,2.92
2022-11-02T23:31:14.352Z,3.70
2022-11-02T23:33:42.336Z,3.78
2022-11-02T23:36:10.995Z,2.65
2022-11-02T23:38:56.605Z,2.60
2022-11-02T23:41:26.388Z,2.25
2022-11-02T23:44:11.591Z,2.40
2022-11-02T23:46:40.924Z,1.63
2022-11-02T23:49:09.780Z,1.90
2022-11-02T23:51:57.178Z,1.75
2022-11-02T23:54:42.721Z,1.98
2022-11-02T23:57:11.175Z,2.67
2022-11-02T23:59:39.416Z,2.10
